sensor_id;sensor_type;location;lat;lon;timestamp;temperature;humidity
1361;DHT22;674;45.552;-122.600;2023-04-03T00:01:35;8.90;1.00
1361;DHT22;674;45.552;-122.600;2023-04-03T00:04:06;8.30;1.00
1361;DHT22;674;45.552;-122.600;2023-04-03T00:06:35;8.70;1.00
1361;DHT22;674;45.552;-122.600;2023-04-03T00:09:04;8.80;1.00
1361;DHT22;674;45.552;-122.600;2023-04-03T00:11:35;9.20;1.00
1361;DHT22;674;45.552;-122.600;2023-04-03T00:14:04;8.60;1.00
1361;DHT22;674;45.552;-122.600;2023-04-03T00:16:33;8.50;1.00
1361;DHT22;674;45.552;-122.600;2023-04-03T00:19:05;8.20;1.00
1361;DHT22;674;45.552;-122.600;2023-04-03T00:21:35;7.70;1.00
1361;DHT22;674;45.552;-122.600;2023-04-03T00:24:04;6.80;1.00
1361;DHT22;674;45.552;-122.600;2023-04-03T00:26:33;7.00;1.00
1361;DHT22;674;45.552;-122.600;2023-04-03T00:29:01;7.00;1.00
1361;DHT22;674;45.552;-122.600;2023-04-03T00:31:31;7.10;1.00
1361;DHT22;674;45.552;-122.600;2023-04-03T00:34:00;7.20;1.00
1361;DHT22;674;45.552;-122.600;2023-04-03T00:36:29;6.80;1.00
1361;DHT22;674;45.552;-122.600;2023-04-03T00:38:57;6.50;1.00
1361;DHT22;674;45.552;-122.600;2023-04-03T00:41:26;6.60;1.00
1361;DHT22;674;45.552;-122.600;2023-04-03T00:43:55;6.50;1.00
1361;DHT22;674;45.552;-122.600;2023-04-03T00:46:23;6.50;1.00
1361;DHT22;674;45.552;-122.600;2023-04-03T00:48:52;6.30;1.00
1361;DHT22;674;45.552;-122.600;2023-04-03T00:51:23;6.00;1.00
1361;DHT22;674;45.552;-122.600;2023-04-03T00:53:55;6.20;1.00
1361;DHT22;674;45.552;-122.600;2023-04-03T00:56:27;6.00;1.00
1361;DHT22;674;45.552;-122.600;2023-04-03T00:59:06;6.00;1.00
1361;DHT22;674;45.552;-122.600;2023-04-03T01:01:36;6.20;1.00
1361;DHT22;674;45.552;-122.600;2023-04-03T01:04:06;6.00;1.00
1361;DHT22;674;45.552;-122.600;2023-04-03T01:06:36;6.00;1.00
1361;DHT22;674;45.552;-122.600;2023-04-03T01:09:05;6.30;1.00
1361;DHT22;674;45.552;-122.600;2023-04-03T01:11:34;6.30;1.00
1361;DHT22;674;45.552;-122.600;2023-04-03T01:14:03;6.20;1.00
1361;DHT22;674;45.552;-122.600;2023-04-03T01:16:34;6.30;1.00
1361;DHT22;674;45.552;-122.600;2023-04-03T01:19:03;6.60;1.00
1361;DHT22;674;45.552;-122.600;2023-04-03T01:24:35;6.60;1.00
1361;DHT22;674;45.552;-122.600;2023-04-03T01:27:05;6.50;1.00
1361;DHT22;674;45.552;-122.600;2023-04-03T01:29:35;6.60;1.00
1361;DHT22;674;45.552;-122.600;2023-04-03T01:32:04;6.80;1.00
1361;DHT22;674;45.552;-122.600;2023-04-03T01:34:33;6.60;1.00
1361;DHT22;674;45.552;-122.600;2023-04-03T01:37:02;6.40;1.00
1361;DHT22;674;45.552;-122.600;2023-04-03T01:39:32;6.60;1.00
1361;DHT22;674;45.552;-122.600;2023-04-03T01:42:01;6.70;1.00
1361;DHT22;674;45.552;-122.600;2023-04-03T01:44:29;6.90;1.00
1361;DHT22;674;45.552;-122.600;2023-04-03T01:46:58;6.70;1.00
1361;DHT22;674;45.552;-122.600;2023-04-03T01:49:26;6.70;1.00
1361;DHT22;674;45.552;-122.600;2023-04-03T01:51:55;6.80;1.00
1361;DHT22;674;45.552;-122.600;2023-04-03T01:54:24;7.00;1.00
1361;DHT22;674;45.552;-122.600;2023-04-03T01:56:52;7.10;1.00
1361;DHT22;674;45.552;-122.600;2023-04-03T01:59:21;6.90;1.00
1361;DHT22;674;45.552;-122.600;2023-04-03T02:01:50;6.90;1.00
1361;DHT22;674;45.552;-122.600;2023-04-03T02:04:19;6.90;1.00
1361;DHT22;674;45.552;-122.600;2023-04-03T02:06:47;7.20;1.00
1361;DHT22;674;45.552;-122.600;2023-04-03T02:09:16;7.20;1.00
1361;DHT22;674;45.552;-122.600;2023-04-03T02:11:44;7.00;1.00
1361;DHT22;674;45.552;-122.600;2023-04-03T02:14:13;6.90;1.00
1361;DHT22;674;45.552;-122.600;2023-04-03T02:16:42;6.90;1.00
1361;DHT22;674;45.552;-122.600;2023-04-03T02:19:10;7.00;1.00
1361;DHT22;674;45.552;-122.600;2023-04-03T02:21:39;7.20;1.00
1361;DHT22;674;45.552;-122.600;2023-04-03T02:24:08;7.10;1.00
1361;DHT22;674;45.552;-122.600;2023-04-03T02:26:37;6.20;1.00
1361;DHT22;674;45.552;-122.600;2023-04-03T02:29:05;5.40;1.00
1361;DHT22;674;45.552;-122.600;2023-04-03T02:31:34;5.60;1.00
1361;DHT22;674;45.552;-122.600;2023-04-03T02:34:03;5.60;1.00
1361;DHT22;674;45.552;-122.600;2023-04-03T02:36:31;5.20;1.00
1361;DHT22;674;45.552;-122.600;2023-04-03T02:39:00;5.30;1.00
1361;DHT22;674;45.552;-122.600;2023-04-03T02:41:29;5.40;1.00
1361;DHT22;674;45.552;-122.600;2023-04-03T02:44:04;5.10;1.00
1361;DHT22;674;45.552;-122.600;2023-04-03T02:46:33;5.30;1.00
1361;DHT22;674;45.552;-122.600;2023-04-03T02:49:02;5.40;20.80
1361;DHT22;674;45.552;-122.600;2023-04-03T02:51:31;5.30;45.60
1361;DHT22;674;45.552;-122.600;2023-04-03T02:53:59;5.20;57.80
1361;DHT22;674;45.552;-122.600;2023-04-03T02:56:28;4.80;66.30
1361;DHT22;674;45.552;-122.600;2023-04-03T02:58:57;5.10;69.20
1361;DHT22;674;45.552;-122.600;2023-04-03T03:01:26;4.70;73.10
1361;DHT22;674;45.552;-122.600;2023-04-03T03:04:00;5.10;72.50
1361;DHT22;674;45.552;-122.600;2023-04-03T03:06:28;5.30;61.70
1361;DHT22;674;45.552;-122.600;2023-04-03T03:08:57;5.40;62.10
1361;DHT22;674;45.552;-122.600;2023-04-03T03:11:26;5.60;52.80
1361;DHT22;674;45.552;-122.600;2023-04-03T03:13:56;5.60;59.50
1361;DHT22;674;45.552;-122.600;2023-04-03T03:16:25;5.30;53.50
1361;DHT22;674;45.552;-122.600;2023-04-03T03:18:54;5.30;45.50
1361;DHT22;674;45.552;-122.600;2023-04-03T03:21:24;5.60;45.40
1361;DHT22;674;45.552;-122.600;2023-04-03T03:23:52;5.60;34.50
1361;DHT22;674;45.552;-122.600;2023-04-03T03:26:21;5.40;21.10
1361;DHT22;674;45.552;-122.600;2023-04-03T03:28:50;5.00;8.90
1361;DHT22;674;45.552;-122.600;2023-04-03T03:31:18;4.90;20.90
1361;DHT22;674;45.552;-122.600;2023-04-03T03:33:47;5.20;20.10
1361;DHT22;674;45.552;-122.600;2023-04-03T03:36:16;5.30;16.40
1361;DHT22;674;45.552;-122.600;2023-04-03T03:38:45;5.30;18.00
1361;DHT22;674;45.552;-122.600;2023-04-03T03:41:14;5.40;17.60
1361;DHT22;674;45.552;-122.600;2023-04-03T03:43:42;5.50;16.50
1361;DHT22;674;45.552;-122.600;2023-04-03T03:46:11;4.80;9.60
1361;DHT22;674;45.552;-122.600;2023-04-03T03:48:39;5.00;15.10
1361;DHT22;674;45.552;-122.600;2023-04-03T03:51:11;5.00;8.20
1361;DHT22;674;45.552;-122.600;2023-04-03T03:53:40;4.80;9.30
1361;DHT22;674;45.552;-122.600;2023-04-03T03:56:08;5.00;28.40
1361;DHT22;674;45.552;-122.600;2023-04-03T03:58:37;4.90;47.50
1361;DHT22;674;45.552;-122.600;2023-04-03T04:01:07;5.10;43.20
1361;DHT22;674;45.552;-122.600;2023-04-03T04:03:36;5.00;42.50
1361;DHT22;674;45.552;-122.600;2023-04-03T04:06:05;4.90;39.40
1361;DHT22;674;45.552;-122.600;2023-04-03T04:08:34;5.10;51.50
1361;DHT22;674;45.552;-122.600;2023-04-03T04:11:03;5.10;52.00
1361;DHT22;674;45.552;-122.600;2023-04-03T04:13:31;4.90;50.40
1361;DHT22;674;45.552;-122.600;2023-04-03T04:16:00;4.70;52.00
1361;DHT22;674;45.552;-122.600;2023-04-03T04:18:29;4.90;57.70
1361;DHT22;674;45.552;-122.600;2023-04-03T04:20:58;4.70;50.60
1361;DHT22;674;45.552;-122.600;2023-04-03T04:23:26;4.60;36.70
1361;DHT22;674;45.552;-122.600;2023-04-03T04:25:55;5.00;34.60
1361;DHT22;674;45.552;-122.600;2023-04-03T04:28:24;4.80;27.30
1361;DHT22;674;45.552;-122.600;2023-04-03T04:30:52;5.10;23.90
1361;DHT22;674;45.552;-122.600;2023-04-03T04:33:21;4.50;19.90
1361;DHT22;674;45.552;-122.600;2023-04-03T04:35:49;4.60;23.50
1361;DHT22;674;45.552;-122.600;2023-04-03T04:38:20;4.50;20.00
1361;DHT22;674;45.552;-122.600;2023-04-03T04:40:48;4.30;21.70
1361;DHT22;674;45.552;-122.600;2023-04-03T04:43:17;4.30;29.70
1361;DHT22;674;45.552;-122.600;2023-04-03T04:45:46;4.20;30.30
1361;DHT22;674;45.552;-122.600;2023-04-03T04:48:15;4.20;26.10
1361;DHT22;674;45.552;-122.600;2023-04-03T04:50:44;4.30;31.90
1361;DHT22;674;45.552;-122.600;2023-04-03T04:53:12;4.40;30.40
1361;DHT22;674;45.552;-122.600;2023-04-03T04:55:41;3.90;42.20
1361;DHT22;674;45.552;-122.600;2023-04-03T04:58:09;3.80;51.80
1361;DHT22;674;45.552;-122.600;2023-04-03T05:00:39;4.30;57.80
1361;DHT22;674;45.552;-122.600;2023-04-03T05:03:08;4.30;54.90
1361;DHT22;674;45.552;-122.600;2023-04-03T05:05:36;4.30;59.10
1361;DHT22;674;45.552;-122.600;2023-04-03T05:08:06;4.30;60.30
1361;DHT22;674;45.552;-122.600;2023-04-03T05:10:36;4.10;57.00
1361;DHT22;674;45.552;-122.600;2023-04-03T05:13:04;4.10;60.30
1361;DHT22;674;45.552;-122.600;2023-04-03T05:15:33;4.10;62.10
1361;DHT22;674;45.552;-122.600;2023-04-03T05:18:02;3.90;74.40
1361;DHT22;674;45.552;-122.600;2023-04-03T05:20:32;4.10;90.00
1361;DHT22;674;45.552;-122.600;2023-04-03T05:23:01;3.90;93.00
1361;DHT22;674;45.552;-122.600;2023-04-03T05:25:30;3.90;95.70
1361;DHT22;674;45.552;-122.600;2023-04-03T05:28:00;3.90;96.60
1361;DHT22;674;45.552;-122.600;2023-04-03T05:30:29;3.90;96.40
1361;DHT22;674;45.552;-122.600;2023-04-03T05:32:58;4.00;95.70
1361;DHT22;674;45.552;-122.600;2023-04-03T05:35:27;3.70;94.10
1361;DHT22;674;45.552;-122.600;2023-04-03T05:37:56;3.80;96.30
1361;DHT22;674;45.552;-122.600;2023-04-03T05:40:25;3.90;94.80
1361;DHT22;674;45.552;-122.600;2023-04-03T05:42:54;3.70;93.30
1361;DHT22;674;45.552;-122.600;2023-04-03T05:45:22;3.50;94.20
1361;DHT22;674;45.552;-122.600;2023-04-03T05:47:51;3.50;96.00
1361;DHT22;674;45.552;-122.600;2023-04-03T05:50:20;3.70;98.20
1361;DHT22;674;45.552;-122.600;2023-04-03T05:52:50;3.80;97.50
1361;DHT22;674;45.552;-122.600;2023-04-03T05:55:19;3.50;95.60
1361;DHT22;674;45.552;-122.600;2023-04-03T05:57:48;3.80;94.20
1361;DHT22;674;45.552;-122.600;2023-04-03T06:00:18;3.30;94.80
1361;DHT22;674;45.552;-122.600;2023-04-03T06:02:47;3.50;97.50
1361;DHT22;674;45.552;-122.600;2023-04-03T06:05:15;3.50;97.90
1361;DHT22;674;45.552;-122.600;2023-04-03T06:07:44;3.50;97.10
1361;DHT22;674;45.552;-122.600;2023-04-03T06:10:13;3.30;99.90
1361;DHT22;674;45.552;-122.600;2023-04-03T06:12:41;3.10;99.90
1361;DHT22;674;45.552;-122.600;2023-04-03T06:15:10;3.30;99.90
1361;DHT22;674;45.552;-122.600;2023-04-03T06:17:39;3.20;99.90
1361;DHT22;674;45.552;-122.600;2023-04-03T06:20:08;3.30;99.90
1361;DHT22;674;45.552;-122.600;2023-04-03T06:22:37;3.30;99.90
1361;DHT22;674;45.552;-122.600;2023-04-03T06:25:06;3.60;99.90
1361;DHT22;674;45.552;-122.600;2023-04-03T06:27:34;3.70;99.90
1361;DHT22;674;45.552;-122.600;2023-04-03T06:30:03;3.50;99.90
1361;DHT22;674;45.552;-122.600;2023-04-03T06:32:32;3.60;99.90
1361;DHT22;674;45.552;-122.600;2023-04-03T06:35:01;3.60;99.90
1361;DHT22;674;45.552;-122.600;2023-04-03T06:37:30;3.60;99.90
1361;DHT22;674;45.552;-122.600;2023-04-03T06:39:59;3.50;99.90
1361;DHT22;674;45.552;-122.600;2023-04-03T06:42:28;3.60;99.90
1361;DHT22;674;45.552;-122.600;2023-04-03T06:44:56;3.70;99.90
1361;DHT22;674;45.552;-122.600;2023-04-03T06:47:25;3.60;99.90
1361;DHT22;674;45.552;-122.600;2023-04-03T06:49:53;3.50;99.90
1361;DHT22;674;45.552;-122.600;2023-04-03T06:52:22;3.50;99.90
1361;DHT22;674;45.552;-122.600;2023-04-03T06:54:51;3.50;99.90
1361;DHT22;674;45.552;-122.600;2023-04-03T06:57:25;3.60;99.90
1361;DHT22;674;45.552;-122.600;2023-04-03T06:59:53;3.60;99.90
1361;DHT22;674;45.552;-122.600;2023-04-03T07:02:22;3.60;99.90
1361;DHT22;674;45.552;-122.600;2023-04-03T07:04:50;3.80;99.90
1361;DHT22;674;45.552;-122.600;2023-04-03T07:07:19;4.00;99.90
1361;DHT22;674;45.552;-122.600;2023-04-03T07:09:47;3.90;99.90
1361;DHT22;674;45.552;-122.600;2023-04-03T07:12:17;3.80;99.90
1361;DHT22;674;45.552;-122.600;2023-04-03T07:14:45;3.90;99.90
1361;DHT22;674;45.552;-122.600;2023-04-03T07:17:14;3.80;99.90
1361;DHT22;674;45.552;-122.600;2023-04-03T07:19:43;4.00;99.90
1361;DHT22;674;45.552;-122.600;2023-04-03T07:22:11;3.80;99.90
1361;DHT22;674;45.552;-122.600;2023-04-03T07:24:40;3.60;99.90
1361;DHT22;674;45.552;-122.600;2023-04-03T07:27:08;3.60;99.90
1361;DHT22;674;45.552;-122.600;2023-04-03T07:29:37;3.60;99.90
1361;DHT22;674;45.552;-122.600;2023-04-03T07:32:06;3.60;99.90
1361;DHT22;674;45.552;-122.600;2023-04-03T07:34:34;3.40;99.90
1361;DHT22;674;45.552;-122.600;2023-04-03T07:37:03;3.80;99.90
1361;DHT22;674;45.552;-122.600;2023-04-03T07:39:33;3.60;99.90
1361;DHT22;674;45.552;-122.600;2023-04-03T07:42:01;3.40;99.90
1361;DHT22;674;45.552;-122.600;2023-04-03T07:44:30;3.30;99.90
1361;DHT22;674;45.552;-122.600;2023-04-03T07:46:58;3.60;99.90
1361;DHT22;674;45.552;-122.600;2023-04-03T07:49:27;3.70;99.90
1361;DHT22;674;45.552;-122.600;2023-04-03T07:51:56;3.30;99.90
1361;DHT22;674;45.552;-122.600;2023-04-03T07:54:25;3.20;99.90
1361;DHT22;674;45.552;-122.600;2023-04-03T07:56:53;3.20;99.90
1361;DHT22;674;45.552;-122.600;2023-04-03T07:59:22;3.20;99.90
1361;DHT22;674;45.552;-122.600;2023-04-03T08:01:50;3.00;99.90
1361;DHT22;674;45.552;-122.600;2023-04-03T08:04:19;2.90;99.90
1361;DHT22;674;45.552;-122.600;2023-04-03T08:06:48;3.00;99.90
1361;DHT22;674;45.552;-122.600;2023-04-03T08:09:16;3.00;99.90
1361;DHT22;674;45.552;-122.600;2023-04-03T08:11:45;3.00;99.90
1361;DHT22;674;45.552;-122.600;2023-04-03T08:14:14;3.10;99.90
1361;DHT22;674;45.552;-122.600;2023-04-03T08:16:47;3.00;99.90
1361;DHT22;674;45.552;-122.600;2023-04-03T08:19:16;3.40;99.90
1361;DHT22;674;45.552;-122.600;2023-04-03T08:21:54;3.10;99.90
1361;DHT22;674;45.552;-122.600;2023-04-03T08:24:23;3.20;99.90
1361;DHT22;674;45.552;-122.600;2023-04-03T08:26:51;3.20;99.90
1361;DHT22;674;45.552;-122.600;2023-04-03T08:29:20;3.30;99.90
1361;DHT22;674;45.552;-122.600;2023-04-03T08:31:49;3.30;99.90
1361;DHT22;674;45.552;-122.600;2023-04-03T08:34:18;3.30;99.90
1361;DHT22;674;45.552;-122.600;2023-04-03T08:36:47;3.40;99.90
1361;DHT22;674;45.552;-122.600;2023-04-03T08:39:16;3.80;99.90
1361;DHT22;674;45.552;-122.600;2023-04-03T08:41:45;3.60;99.90
1361;DHT22;674;45.552;-122.600;2023-04-03T08:44:36;3.60;99.90
1361;DHT22;674;45.552;-122.600;2023-04-03T08:50:15;3.70;99.90
1361;DHT22;674;45.552;-122.600;2023-04-03T08:52:50;3.60;99.90
1361;DHT22;674;45.552;-122.600;2023-04-03T08:55:34;3.40;99.90
1361;DHT22;674;45.552;-122.600;2023-04-03T08:58:18;3.70;99.90
1361;DHT22;674;45.552;-122.600;2023-04-03T09:01:05;3.60;99.90
1361;DHT22;674;45.552;-122.600;2023-04-03T09:03:38;3.50;99.90
1361;DHT22;674;45.552;-122.600;2023-04-03T09:09:35;3.70;99.90
1361;DHT22;674;45.552;-122.600;2023-04-03T09:12:25;3.40;99.90
1361;DHT22;674;45.552;-122.600;2023-04-03T09:15:21;3.30;99.90
1361;DHT22;674;45.552;-122.600;2023-04-03T09:18:13;3.30;99.90
1361;DHT22;674;45.552;-122.600;2023-04-03T09:23:38;3.30;99.90
1361;DHT22;674;45.552;-122.600;2023-04-03T09:26:29;3.30;99.90
1361;DHT22;674;45.552;-122.600;2023-04-03T09:29:06;3.30;99.90
1361;DHT22;674;45.552;-122.600;2023-04-03T09:31:40;3.20;99.90
1361;DHT22;674;45.552;-122.600;2023-04-03T09:34:25;3.30;99.90
1361;DHT22;674;45.552;-122.600;2023-04-03T09:36:57;3.00;99.90
1361;DHT22;674;45.552;-122.600;2023-04-03T09:39:28;3.20;99.90
1361;DHT22;674;45.552;-122.600;2023-04-03T09:42:25;3.00;99.90
1361;DHT22;674;45.552;-122.600;2023-04-03T09:45:04;3.20;99.90
1361;DHT22;674;45.552;-122.600;2023-04-03T09:47:35;3.30;99.90
1361;DHT22;674;45.552;-122.600;2023-04-03T09:52:51;3.10;99.90
1361;DHT22;674;45.552;-122.600;2023-04-03T09:55:25;3.20;99.90
1361;DHT22;674;45.552;-122.600;2023-04-03T09:58:00;3.20;99.90
1361;DHT22;674;45.552;-122.600;2023-04-03T10:00:37;3.30;99.90
1361;DHT22;674;45.552;-122.600;2023-04-03T10:03:28;3.50;99.90
1361;DHT22;674;45.552;-122.600;2023-04-03T10:05:59;3.60;99.90
1361;DHT22;674;45.552;-122.600;2023-04-03T10:11:16;3.60;99.90
1361;DHT22;674;45.552;-122.600;2023-04-03T10:14:02;3.70;99.90
1361;DHT22;674;45.552;-122.600;2023-04-03T10:19:36;3.80;99.90
1361;DHT22;674;45.552;-122.600;2023-04-03T10:22:56;3.20;99.90
1361;DHT22;674;45.552;-122.600;2023-04-03T10:25:12;3.40;99.90
1361;DHT22;674;45.552;-122.600;2023-04-03T10:28:10;3.30;99.90
1361;DHT22;674;45.552;-122.600;2023-04-03T10:31:03;3.10;99.90
1361;DHT22;674;45.552;-122.600;2023-04-03T10:36:37;3.20;99.90
1361;DHT22;674;45.552;-122.600;2023-04-03T10:42:18;3.30;99.90
1361;DHT22;674;45.552;-122.600;2023-04-03T10:53:44;3.30;99.90
1361;DHT22;674;45.552;-122.600;2023-04-03T10:58:39;3.30;99.90
1361;DHT22;674;45.552;-122.600;2023-04-03T11:01:38;3.00;99.90
1361;DHT22;674;45.552;-122.600;2023-04-03T11:04:09;2.90;99.90
1361;DHT22;674;45.552;-122.600;2023-04-03T11:06:45;3.10;99.90
1361;DHT22;674;45.552;-122.600;2023-04-03T11:09:26;3.00;99.90
1361;DHT22;674;45.552;-122.600;2023-04-03T11:14:40;3.10;99.90
1361;DHT22;674;45.552;-122.600;2023-04-03T11:22:33;2.70;99.90
1361;DHT22;674;45.552;-122.600;2023-04-03T11:25:20;2.60;99.90
1361;DHT22;674;45.552;-122.600;2023-04-03T11:28:00;2.70;99.90
1361;DHT22;674;45.552;-122.600;2023-04-03T11:35:52;2.60;99.90
1361;DHT22;674;45.552;-122.600;2023-04-03T11:38:35;3.10;99.90
1361;DHT22;674;45.552;-122.600;2023-04-03T11:41:06;2.80;99.90
1361;DHT22;674;45.552;-122.600;2023-04-03T11:43:42;3.00;99.90
1361;DHT22;674;45.552;-122.600;2023-04-03T11:46:10;3.20;99.90
1361;DHT22;674;45.552;-122.600;2023-04-03T11:48:44;2.80;99.90
1361;DHT22;674;45.552;-122.600;2023-04-03T11:53:44;3.10;99.90
1361;DHT22;674;45.552;-122.600;2023-04-03T12:01:47;3.10;99.90
1361;DHT22;674;45.552;-122.600;2023-04-03T12:04:18;3.20;99.90
1361;DHT22;674;45.552;-122.600;2023-04-03T12:06:49;3.10;99.90
1361;DHT22;674;45.552;-122.600;2023-04-03T12:12:24;3.20;99.90
1361;DHT22;674;45.552;-122.600;2023-04-03T12:14:54;2.80;99.90
1361;DHT22;674;45.552;-122.600;2023-04-03T12:17:26;2.70;99.90
1361;DHT22;674;45.552;-122.600;2023-04-03T12:19:55;3.00;99.90
1361;DHT22;674;45.552;-122.600;2023-04-03T12:22:24;2.80;99.90
1361;DHT22;674;45.552;-122.600;2023-04-03T12:24:53;3.00;99.90
1361;DHT22;674;45.552;-122.600;2023-04-03T12:29:58;2.90;99.90
1361;DHT22;674;45.552;-122.600;2023-04-03T12:35:47;3.10;99.90
1361;DHT22;674;45.552;-122.600;2023-04-03T12:46:54;3.00;99.90
1361;DHT22;674;45.552;-122.600;2023-04-03T12:51:54;3.00;99.90
1361;DHT22;674;45.552;-122.600;2023-04-03T12:54:36;2.80;99.90
1361;DHT22;674;45.552;-122.600;2023-04-03T12:57:22;3.00;99.90
1361;DHT22;674;45.552;-122.600;2023-04-03T12:59:51;2.70;99.90
1361;DHT22;674;45.552;-122.600;2023-04-03T13:02:23;2.80;99.90
1361;DHT22;674;45.552;-122.600;2023-04-03T13:04:55;2.80;99.90
1361;DHT22;674;45.552;-122.600;2023-04-03T13:07:35;2.80;99.90
1361;DHT22;674;45.552;-122.600;2023-04-03T13:12:51;2.70;99.90
1361;DHT22;674;45.552;-122.600;2023-04-03T13:15:28;2.60;99.90
1361;DHT22;674;45.552;-122.600;2023-04-03T13:17:58;2.70;99.90
1361;DHT22;674;45.552;-122.600;2023-04-03T13:20:36;2.60;99.90
1361;DHT22;674;45.552;-122.600;2023-04-03T13:23:11;2.70;99.90
1361;DHT22;674;45.552;-122.600;2023-04-03T13:25:43;2.80;99.90
1361;DHT22;674;45.552;-122.600;2023-04-03T13:28:17;2.70;99.90
1361;DHT22;674;45.552;-122.600;2023-04-03T13:36:33;2.70;99.90
1361;DHT22;674;45.552;-122.600;2023-04-03T13:41:44;2.80;99.90
1361;DHT22;674;45.552;-122.600;2023-04-03T13:46:53;2.60;99.90
1361;DHT22;674;45.552;-122.600;2023-04-03T13:49:32;2.70;99.90
1361;DHT22;674;45.552;-122.600;2023-04-03T13:52:17;2.80;99.90
1361;DHT22;674;45.552;-122.600;2023-04-03T13:55:03;2.70;99.90
1361;DHT22;674;45.552;-122.600;2023-04-03T13:57:56;2.70;99.90
1361;DHT22;674;45.552;-122.600;2023-04-03T14:03:30;3.00;99.90
1361;DHT22;674;45.552;-122.600;2023-04-03T14:05:59;2.90;99.90
1361;DHT22;674;45.552;-122.600;2023-04-03T14:08:29;3.10;99.90
1361;DHT22;674;45.552;-122.600;2023-04-03T14:11:35;3.10;99.90
1361;DHT22;674;45.552;-122.600;2023-04-03T14:14:10;3.00;99.90
1361;DHT22;674;45.552;-122.600;2023-04-03T14:16:42;2.90;99.90
1361;DHT22;674;45.552;-122.600;2023-04-03T14:19:34;3.00;99.90
1361;DHT22;674;45.552;-122.600;2023-04-03T14:22:13;3.20;99.90
1361;DHT22;674;45.552;-122.600;2023-04-03T14:24:43;3.30;99.90
1361;DHT22;674;45.552;-122.600;2023-04-03T14:27:24;3.30;99.90
1361;DHT22;674;45.552;-122.600;2023-04-03T14:29:54;3.70;99.90
1361;DHT22;674;45.552;-122.600;2023-04-03T14:32:23;3.20;99.90
1361;DHT22;674;45.552;-122.600;2023-04-03T14:34:52;3.50;99.90
1361;DHT22;674;45.552;-122.600;2023-04-03T14:37:24;3.30;99.90
1361;DHT22;674;45.552;-122.600;2023-04-03T14:39:53;3.10;99.90
1361;DHT22;674;45.552;-122.600;2023-04-03T14:42:27;3.30;99.90
1361;DHT22;674;45.552;-122.600;2023-04-03T14:44:56;3.50;99.90
1361;DHT22;674;45.552;-122.600;2023-04-03T14:47:28;3.50;99.90
1361;DHT22;674;45.552;-122.600;2023-04-03T14:50:00;3.40;99.90
1361;DHT22;674;45.552;-122.600;2023-04-03T14:52:33;3.50;99.90
1361;DHT22;674;45.552;-122.600;2023-04-03T14:55:03;3.30;99.90
1361;DHT22;674;45.552;-122.600;2023-04-03T14:57:32;3.30;99.90
1361;DHT22;674;45.552;-122.600;2023-04-03T15:00:01;3.50;99.90
1361;DHT22;674;45.552;-122.600;2023-04-03T15:02:37;3.90;99.90
1361;DHT22;674;45.552;-122.600;2023-04-03T15:05:08;3.80;99.90
1361;DHT22;674;45.552;-122.600;2023-04-03T15:07:47;3.80;99.90
1361;DHT22;674;45.552;-122.600;2023-04-03T15:10:26;4.00;99.90
1361;DHT22;674;45.552;-122.600;2023-04-03T15:12:55;3.80;99.90
1361;DHT22;674;45.552;-122.600;2023-04-03T15:15:24;3.80;99.90
1361;DHT22;674;45.552;-122.600;2023-04-03T15:17:57;3.80;99.90
1361;DHT22;674;45.552;-122.600;2023-04-03T15:20:27;3.80;99.00
1361;DHT22;674;45.552;-122.600;2023-04-03T15:22:55;3.80;99.90
1361;DHT22;674;45.552;-122.600;2023-04-03T15:25:24;3.60;99.90
1361;DHT22;674;45.552;-122.600;2023-04-03T15:27:55;3.60;99.90
1361;DHT22;674;45.552;-122.600;2023-04-03T15:30:23;3.80;99.90
1361;DHT22;674;45.552;-122.600;2023-04-03T15:32:52;3.80;99.90
1361;DHT22;674;45.552;-122.600;2023-04-03T15:35:21;4.20;99.90
1361;DHT22;674;45.552;-122.600;2023-04-03T15:37:49;4.30;99.00
1361;DHT22;674;45.552;-122.600;2023-04-03T15:40:19;3.90;98.50
1361;DHT22;674;45.552;-122.600;2023-04-03T15:42:47;4.20;99.90
1361;DHT22;674;45.552;-122.600;2023-04-03T15:45:18;4.50;99.90
1361;DHT22;674;45.552;-122.600;2023-04-03T15:47:46;4.60;96.30
1361;DHT22;674;45.552;-122.600;2023-04-03T15:50:15;4.70;96.60
1361;DHT22;674;45.552;-122.600;2023-04-03T15:52:44;4.90;97.60
1361;DHT22;674;45.552;-122.600;2023-04-03T15:55:12;5.10;94.40
1361;DHT22;674;45.552;-122.600;2023-04-03T15:57:41;4.80;71.60
1361;DHT22;674;45.552;-122.600;2023-04-03T16:00:10;5.40;88.90
1361;DHT22;674;45.552;-122.600;2023-04-03T16:02:38;5.60;65.30
1361;DHT22;674;45.552;-122.600;2023-04-03T16:05:09;5.60;39.70
1361;DHT22;674;45.552;-122.600;2023-04-03T16:07:39;6.00;25.90
1361;DHT22;674;45.552;-122.600;2023-04-03T16:10:11;5.70;20.80
1361;DHT22;674;45.552;-122.600;2023-04-03T16:12:41;6.30;22.90
1361;DHT22;674;45.552;-122.600;2023-04-03T16:15:11;6.30;1.00
1361;DHT22;674;45.552;-122.600;2023-04-03T16:17:40;6.70;1.00
1361;DHT22;674;45.552;-122.600;2023-04-03T16:20:10;6.70;1.00
1361;DHT22;674;45.552;-122.600;2023-04-03T16:22:40;6.90;1.00
1361;DHT22;674;45.552;-122.600;2023-04-03T16:25:10;7.60;1.00
1361;DHT22;674;45.552;-122.600;2023-04-03T16:27:39;8.60;1.00
1361;DHT22;674;45.552;-122.600;2023-04-03T16:30:08;8.40;1.00
1361;DHT22;674;45.552;-122.600;2023-04-03T16:32:37;9.00;1.00
1361;DHT22;674;45.552;-122.600;2023-04-03T16:35:07;8.50;1.00
1361;DHT22;674;45.552;-122.600;2023-04-03T16:37:35;7.90;1.00
1361;DHT22;674;45.552;-122.600;2023-04-03T16:40:05;7.60;1.00
1361;DHT22;674;45.552;-122.600;2023-04-03T16:42:34;7.60;1.00
1361;DHT22;674;45.552;-122.600;2023-04-03T16:45:05;8.40;1.00
1361;DHT22;674;45.552;-122.600;2023-04-03T16:47:34;9.30;1.00
1361;DHT22;674;45.552;-122.600;2023-04-03T16:50:03;9.80;1.00
1361;DHT22;674;45.552;-122.600;2023-04-03T16:52:32;9.60;1.00
1361;DHT22;674;45.552;-122.600;2023-04-03T16:55:00;9.70;1.00
1361;DHT22;674;45.552;-122.600;2023-04-03T16:57:29;9.40;1.00
1361;DHT22;674;45.552;-122.600;2023-04-03T16:59:57;9.90;1.00
1361;DHT22;674;45.552;-122.600;2023-04-03T17:02:26;10.20;1.00
1361;DHT22;674;45.552;-122.600;2023-04-03T17:04:54;8.50;1.00
1361;DHT22;674;45.552;-122.600;2023-04-03T17:07:24;10.10;1.00
1361;DHT22;674;45.552;-122.600;2023-04-03T17:09:53;10.40;1.00
1361;DHT22;674;45.552;-122.600;2023-04-03T17:12:21;9.70;1.00
1361;DHT22;674;45.552;-122.600;2023-04-03T17:14:50;9.80;1.00
1361;DHT22;674;45.552;-122.600;2023-04-03T17:17:22;9.90;1.00
1361;DHT22;674;45.552;-122.600;2023-04-03T17:19:52;9.80;1.00
1361;DHT22;674;45.552;-122.600;2023-04-03T17:22:22;9.70;1.00
1361;DHT22;674;45.552;-122.600;2023-04-03T17:24:50;8.40;1.00
1361;DHT22;674;45.552;-122.600;2023-04-03T17:27:18;8.60;1.00
1361;DHT22;674;45.552;-122.600;2023-04-03T17:29:47;8.20;1.00
1361;DHT22;674;45.552;-122.600;2023-04-03T17:32:16;7.80;1.00
1361;DHT22;674;45.552;-122.600;2023-04-03T17:34:47;7.40;1.00
1361;DHT22;674;45.552;-122.600;2023-04-03T17:37:15;7.60;1.00
1361;DHT22;674;45.552;-122.600;2023-04-03T17:39:44;7.70;1.00
1361;DHT22;674;45.552;-122.600;2023-04-03T17:42:13;8.00;1.00
1361;DHT22;674;45.552;-122.600;2023-04-03T17:44:42;7.50;1.00
1361;DHT22;674;45.552;-122.600;2023-04-03T17:47:11;7.70;1.00
1361;DHT22;674;45.552;-122.600;2023-04-03T17:49:39;7.50;1.00
1361;DHT22;674;45.552;-122.600;2023-04-03T17:52:08;7.10;1.00